Time;durP1;ratioP1;P1;durP2;ratioP2;P2;SDS_P1;SDS_P2;PMS_P1;PMS_P2;Temp;Humidity;BMP_temperature;BMP_pressure;BME280_temperature;BME280_humidity;BME280_pressure;Samples;Min_cycle;Max_cycle;Signal;HPM_P1;HPM_P2
2022/03/26 00:00:04;;;;;;;1.00;0.60;;;;;;;-1.37;43.45;97042.22;6370469;27;20039;-60
2022/03/26 00:03:08;;;;;;;1.90;0.73;;;;;;;-1.47;43.45;97029.47;6369050;27;20053;-60
2022/03/26 00:06:09;;;;;;;1.58;0.65;;;;;;;-1.52;43.67;97034.72;6373609;27;20042;-60
2022/03/26 00:09:13;;;;;;;1.05;0.63;;;;;;;-1.42;43.92;97043.16;6355636;27;20042;-58
2022/03/26 00:12:15;;;;;;;1.42;1.05;;;;;;;-1.50;43.68;97042.41;6370257;27;20106;-60
2022/03/26 00:15:21;;;;;;;1.08;0.70;;;;;;;-1.56;44.31;97035.63;6367824;27;20035;-61
2022/03/26 00:18:22;;;;;;;;;;;;;;;-1.48;44.01;97038.09;6369713;27;20039;-60
2022/03/26 00:21:27;;;;;;;3.10;0.90;;;;;;;-1.63;44.51;97034.00;6369943;27;19923;-61
2022/03/26 00:24:28;;;;;;;;;;;;;;;-1.61;44.17;97042.59;6353278;27;20053;-60
2022/03/26 00:27:30;;;;;;;;;;;;;;;-1.69;44.39;97037.53;6370008;27;19919;-60
2022/03/26 00:30:31;;;;;;;;;;;;;;;-1.68;44.09;97030.63;6371278;27;20356;-60
2022/03/26 00:33:32;;;;;;;;;;;;;;;-1.72;43.88;97040.16;6369114;27;19951;-60
2022/03/26 00:36:36;;;;;;;;;;;;;;;-1.72;43.61;97034.16;6368535;27;19930;-59
2022/03/26 00:39:39;;;;;;;;;;;;;;;-1.69;43.69;97039.25;6352858;27;20540;-61
2022/03/26 00:42:40;;;;;;;;;;;;;;;-1.88;43.72;97039.50;6372244;27;20384;-60
2022/03/26 00:45:44;;;;;;;;;;;;;;;-1.97;44.25;97042.19;6368912;27;19920;-61
2022/03/26 00:48:47;;;;;;;;;;;;;;;-2.00;44.11;97049.97;6371221;27;19919;-61
2022/03/26 00:51:51;;;;;;;;;;;;;;;-1.95;44.06;97044.75;6377552;27;20013;-61
2022/03/26 00:54:55;;;;;;;;;;;;;;;-2.02;44.33;97046.56;6376649;27;20239;-61
2022/03/26 00:57:58;;;;;;;;;;;;;;;-2.06;44.08;97044.91;6376097;27;20318;-60
2022/03/26 01:00:59;;;;;;;;;;;;;;;-1.99;43.36;97050.81;6375373;27;19926;-61
2022/03/26 01:04:01;;;;;;;;;;;;;;;-2.18;44.30;97045.03;6373477;27;20375;-61
2022/03/26 01:07:07;;;;;;;;;;;;;;;-2.30;44.28;97046.88;6379042;27;19918;-61
2022/03/26 01:10:08;;;;;;;;;;;;;;;-2.23;44.49;97046.84;6375739;27;19922;-61
2022/03/26 01:13:13;;;;;;;;;;;;;;;-2.39;44.63;97051.28;6371700;27;19916;-60
2022/03/26 01:16:14;;;;;;;;;;;;;;;-2.34;44.99;97055.53;6374698;27;19923;-60
2022/03/26 01:19:18;;;;;;;;;;;;;;;-2.32;44.98;97061.53;6373461;27;19920;-60
2022/03/26 01:22:19;;;;;;;;;;;;;;;-2.34;44.94;97060.69;6375342;27;19970;-60
2022/03/26 01:25:25;;;;;;;;;;;;;;;-2.38;44.98;97068.44;6376942;27;19923;-60
2022/03/26 01:28:26;;;;;;;;;;;;;;;-2.35;44.98;97055.53;6378252;27;20391;-60
2022/03/26 01:31:27;;;;;;;;;;;;;;;-2.33;45.03;97054.66;6374165;27;20502;-61
2022/03/26 01:34:28;;;;;;;;;;;;;;;-2.29;44.85;97058.91;6373016;27;19947;-61
2022/03/26 01:37:32;;;;;;;;;;;;;;;-2.36;44.87;97052.09;6376137;27;19927;-59
2022/03/26 01:40:33;;;;;;;;;;;;;;;-2.36;44.44;97046.94;6377935;27;19923;-60
2022/03/26 01:43:34;;;;;;;;;;;;;;;-2.43;44.85;97045.31;6374449;27;19930;-60
2022/03/26 01:46:49;;;;;;;;;;;;;;;-2.36;44.72;97054.69;6372553;27;20343;-60
2022/03/26 01:49:53;;;;;;;;;;;;;;;-2.38;44.33;97043.53;6373721;27;19926;-60
2022/03/26 01:52:54;;;;;;;;;;;;;;;-2.46;44.67;97040.22;6374675;27;19919;-60
2022/03/26 01:55:57;;;;;;;;;;;;;;;-2.45;44.65;97047.06;6374096;27;20376;-60
2022/03/26 01:58:59;;;;;;;;;;;;;;;-2.55;44.57;97042.84;6376778;27;19926;-60
2022/03/26 02:02:00;;;;;;;;;;;;;;;-2.57;44.51;97047.19;6372881;27;20410;-60
2022/03/26 02:05:03;;;;;;;;;;;;;;;-2.45;44.25;97041.91;6375096;27;19919;-60
2022/03/26 02:08:07;;;;;;;;;;;;;;;-2.62;43.96;97038.66;6374072;27;20384;-60
2022/03/26 02:11:08;;;;;;;;;;;;;;;-2.65;44.44;97044.69;6373625;27;20017;-60
2022/03/26 02:14:12;;;;;;;;;;;;;;;-2.58;44.17;97041.16;6372771;27;19919;-61
2022/03/26 02:17:17;;;;;;;;;;;;;;;-2.50;43.83;97048.81;6374838;27;20384;-60
2022/03/26 02:20:22;;;;;;;;;;;;;;;-2.48;43.73;97052.25;6374796;27;19963;-60
2022/03/26 02:23:23;;;;;;;;;;;;;;;-2.46;43.65;97039.34;6371626;27;21030;-60
2022/03/26 02:26:26;;;;;;;;;;;;;;;-2.50;43.34;97046.25;6377692;27;20238;-61
2022/03/26 02:29:30;;;;;;;;;;;;;;;-2.41;43.10;97043.56;6357739;27;20358;-60
2022/03/26 02:32:32;;;;;;;;;;;;;;;-2.43;42.89;97035.03;6371634;27;19934;-59
2022/03/26 02:35:33;;;;;;;;;;;;;;;-2.48;43.15;97031.63;6374766;27;19931;-59
2022/03/26 02:38:34;;;;;;;;;;;;;;;-2.41;42.89;97032.41;6375182;27;20044;-62
2022/03/26 02:41:35;;;;;;;;;;;;;;;-2.34;42.72;97024.59;6371735;27;21247;-60
2022/03/26 02:44:38;;;;;;;;;;;;;;;-2.29;43.00;97027.13;6335344;27;19927;-60
2022/03/26 02:47:44;;;;;;;;;;;;;;;-2.17;42.37;97026.13;6371969;27;19964;-60
2022/03/26 02:50:45;;;;;;;;;;;;;;;-2.17;42.52;97023.56;6371621;27;19922;-59
2022/03/26 02:53:46;;;;;;;;;;;;;;;-2.09;42.16;97024.31;6371822;27;19926;-60
2022/03/26 02:56:51;;;;;;;;;;;;;;;-2.06;42.16;97029.44;6379127;27;20431;-60
2022/03/26 02:59:54;;;;;;;;;;;;;;;-2.02;42.12;97025.94;6372957;27;19930;-60
2022/03/26 03:02:55;;;;;;;;;;;;;;;-1.88;41.05;97024.03;6373486;27;19923;-60
2022/03/26 03:05:57;;;;;;;;;;;;;;;-1.85;41.57;97023.13;6354412;27;19923;-61
2022/03/26 03:09:07;;;;;;;;;;;;;;;-1.84;41.35;97020.53;6373686;27;19923;-61
2022/03/26 03:12:12;;;;;;;;;;;;;;;-1.81;41.44;97020.50;6369226;27;19926;-61
2022/03/26 03:15:13;;;;;;;;;;;;;;;-1.65;41.43;97035.75;6372394;27;19919;-60
2022/03/26 03:18:15;;;;;;;;;;;;;;;-1.46;41.19;97021.72;6372377;27;19923;-60
2022/03/26 03:21:16;;;;;;;;;;;;;;;-1.44;40.66;97025.13;6371593;27;19932;-62
2022/03/26 03:24:21;;;;;;;;;;;;;;;-1.33;40.68;97026.69;6372816;27;19919;-62
2022/03/26 03:27:24;;;;;;;;;;;;;;;-1.23;40.21;97023.94;6377951;27;19919;-60
2022/03/26 03:30:26;;;;;;;;;;;;;;;-1.14;40.08;97028.09;6370575;27;20435;-61
2022/03/26 03:33:29;;;;;;;;;;;;;;;-1.00;39.54;97020.97;6354881;27;20572;-60
2022/03/26 03:36:30;;;;;;;;;;;;;;;-0.85;39.54;97013.84;6371597;27;19919;-59
2022/03/26 03:39:34;;;;;;;;;;;;;;;-0.74;39.11;97032.59;6368532;27;19967;-61
2022/03/26 03:42:36;;;;;;;;;;;;;;;-0.73;39.44;97016.22;6377680;27;19938;-60
2022/03/26 03:45:37;;;;;;;;;;;;;;;-0.64;39.22;97023.81;6368356;27;20376;-62
2022/03/26 03:48:40;;;;;;;;;;;;;;;-0.52;38.41;97023.56;6369503;27;19942;-59
2022/03/26 03:51:44;;;;;;;;;;;;;;;-0.53;38.90;97028.78;6376506;27;20372;-61
2022/03/26 03:54:48;;;;;;;;;;;;;;;-0.38;38.74;97025.06;6370883;27;20026;-61
2022/03/26 03:57:49;;;;;;;;;;;;;;;-0.26;38.28;97022.22;6371198;27;20158;-60
2022/03/26 04:00:55;;;;;;;;;;;;;;;-0.06;37.87;97020.09;6370377;27;20017;-60
2022/03/26 04:03:59;;;;;;;;;;;;;;;-0.01;38.38;97025.16;6368711;27;20380;-62
2022/03/26 04:07:12;;;;;;;;;;;;;;;0.28;37.59;97027.13;6371434;27;19923;-62
2022/03/26 04:10:14;;;;;;;;;;;;;;;0.45;36.88;97031.94;6370361;27;19926;-61
2022/03/26 04:13:18;;;;;;;;;;;;;;;0.39;37.22;97019.13;6353258;27;19923;-60
2022/03/26 04:16:21;;;;;;;;;;;;;;;0.54;36.81;97034.34;6369059;27;20021;-61
2022/03/26 04:19:25;;;;;;;;;;;;;;;0.64;36.30;97030.63;6370207;27;19919;-61
2022/03/26 04:22:30;;;;;;;;;;;;;;;0.89;36.53;97025.75;6373910;27;19942;-61
2022/03/26 04:25:34;;;;;;;;;;;;;;;1.19;35.90;97025.88;6372219;27;19919;-61
2022/03/26 04:28:37;;;;;;;;;;;;;;;1.40;35.92;97029.66;6374447;27;19964;-61
2022/03/26 04:31:38;;;;;;;;;;;;;;;1.72;35.43;97031.38;6379026;27;19915;-62
2022/03/26 04:34:39;;;;;;;;;;;;;;;2.06;35.48;97027.84;6374543;27;20444;-61
2022/03/26 04:37:41;;;;;;;;;;;;;;;2.34;34.55;97034.84;6371052;27;20268;-61
2022/03/26 04:40:42;;;;;;;;;;;;;;;2.48;34.33;97030.09;6378452;27;19919;-63
2022/03/26 04:43:43;;;;;;;;;;;;;;;2.72;33.28;97027.63;6379634;27;20431;-60
2022/03/26 04:46:44;;;;;;;;;;;;;;;2.81;33.66;97028.19;6375579;27;20043;-61
2022/03/26 04:49:51;;;;;;;;;;;;;;;3.04;33.12;97019.66;6375999;27;19919;-61
2022/03/26 04:52:56;;;;;;;;;;;;;;;3.31;32.87;97019.63;6356268;27;19920;-62
2022/03/26 04:55:59;;;;;;;;;;;;;;;3.75;32.65;97027.69;6371772;27;19919;-62
2022/03/26 04:59:01;;;;;;;;;;;;;;;4.23;32.01;97013.78;6373784;27;20147;-60
2022/03/26 05:02:02;;;;;;;;;;;;;;;4.39;31.57;97020.13;6374425;27;20026;-62
2022/03/26 05:05:06;;;;;;;;;;;;;;;4.53;31.22;97018.72;6377347;27;19919;-60
2022/03/26 05:08:10;;;;;;;;;;;;;;;4.90;30.62;97011.19;6375032;27;19923;-61
2022/03/26 05:11:14;;;;;;;;;;;;;;;5.06;30.35;97018.38;6374413;27;20018;-61
2022/03/26 05:14:16;;;;;;;;;;;;;;;5.06;30.07;97019.22;6373419;27;19941;-61
2022/03/26 05:17:21;;;;;;;;;;;;;;;4.98;29.78;97018.69;6370898;27;19978;-60
2022/03/26 05:20:24;;;;;;;;;;;;;;;5.15;29.62;97025.81;6373998;27;19923;-61
2022/03/26 05:23:26;;;;;;;;;;;;;;;5.59;29.21;97015.31;6376406;27;19923;-60
2022/03/26 05:26:28;;;;;;;;;;;;;;;5.87;28.74;97016.72;6375945;27;20517;-60
2022/03/26 05:29:31;;;;;;;;;;;;;;;6.22;28.28;97008.19;6376032;27;19918;-61
2022/03/26 05:32:32;;;;;;;;;;;;;;;6.77;27.94;97009.19;6369785;27;19918;-61
2022/03/26 05:35:33;;;;;;;;;;;;;;;7.34;27.97;97007.25;6376640;27;19942;-60
2022/03/26 05:38:35;;;;;;;;;;;;;;;8.05;27.13;97000.09;6357942;27;19919;-61
2022/03/26 05:41:36;;;;;;;;;;;;;;;9.04;26.29;97005.28;6376758;27;19927;-61
2022/03/26 05:44:37;;;;;;;;;;;;;;;9.71;25.53;97001.38;6371983;27;19923;-61
2022/03/26 05:47:38;;;;;;;;;;;;;;;10.19;25.55;96994.09;6372786;27;19920;-61
2022/03/26 05:50:40;;;;;;;;;;;;;;;10.76;25.15;96993.22;6372763;27;19926;-61
2022/03/26 05:53:41;;;;;;;;;;;;;;;11.13;23.73;96994.31;6374273;27;19922;-61
2022/03/26 05:56:51;;;;;;;;;;;;;;;10.89;23.16;96990.63;6372440;27;19919;-60
2022/03/26 05:59:52;;;;;;;;;;;;;;;11.16;23.74;96983.56;6372182;27;20146;-60
2022/03/26 06:02:56;;;;;;;;;;;;;;;12.95;22.05;96983.56;6371973;27;19920;-60
2022/03/26 06:05:58;;;;;;;;;;;;;;;14.18;21.41;96978.81;6336576;27;20432;-60
2022/03/26 06:08:59;;;;;;;;;;;;;;;15.62;19.93;96973.34;6376505;27;19942;-60
2022/03/26 06:12:00;;;;;;;;;;;;;;;17.85;18.98;96983.94;6370403;27;19919;-60
2022/03/26 06:15:03;;;;;;;;;;;;;;;19.94;17.48;96969.13;6370501;27;19926;-59
2022/03/26 06:18:05;;;;;;;;;;;;;;;21.59;15.76;96964.31;6373813;27;20077;-60
2022/03/26 06:21:11;;;;;;;;;;;;;;;23.35;16.40;96975.16;6379250;27;19938;-61
2022/03/26 06:24:15;;;;;;;;;;;;;;;25.73;15.21;96972.50;6371022;27;19919;-60
2022/03/26 06:27:18;;;;;;;;;;;;;;;26.24;14.81;96979.59;6373279;27;19923;-61
2022/03/26 06:30:22;;;;;;;;;;;;;;;27.45;14.22;96965.75;6371745;27;20400;-61
2022/03/26 06:33:23;;;;;;;;;;;;;;;28.88;13.15;96963.50;6369836;27;19950;-61
2022/03/26 06:36:26;;;;;;;;;;;;;;;29.02;13.50;96961.59;6374121;27;19919;-61
2022/03/26 06:39:27;;;;;;;;;;;;;;;26.54;13.92;96947.06;6370483;27;20287;-61
2022/03/26 06:42:31;;;;;;;;;;;;;;;24.79;12.33;96936.59;6378668;27;19963;-62
2022/03/26 06:45:35;;;;;;;;;;;;;;;23.83;15.95;96935.56;6370978;27;20013;-61
2022/03/26 06:48:36;;;;;;;;;;;;;;;22.70;15.92;96933.34;6370228;27;19918;-61
2022/03/26 06:51:37;;;;;;;;;;;;;;;24.55;14.91;96925.13;6370995;27;20827;-61
2022/03/26 06:54:39;;;;;;;;;;;;;;;27.50;11.47;96925.44;6371998;27;19999;-61
2022/03/26 06:57:41;;;;;;;;;;;;;;;27.83;9.94;96922.81;6374131;27;19948;-62
2022/03/26 07:00:42;;;;;;;;;;;;;;;26.39;11.57;96918.28;6371199;27;19927;-62
2022/03/26 07:03:47;;;;;;;;;;;;;;;25.60;11.39;96901.50;6369915;27;19974;-61
2022/03/26 07:06:51;;;;;;;;;;;;;;;27.15;11.02;96895.84;6367313;27;19927;-61
2022/03/26 07:09:52;;;;;;;;;;;;;;;31.27;9.48;96904.63;6370135;27;20011;-61
2022/03/26 07:12:53;;;;;;;;;;;;;;;34.58;7.90;96902.91;6367129;27;20284;-62
2022/03/26 07:15:55;;;;;;;;;;;;;;;34.84;8.27;96888.50;6367614;27;20034;-61
2022/03/26 07:18:56;;;;;;;;;;;;;;;33.45;8.94;96881.91;6367974;27;20345;-61
2022/03/26 07:21:58;;;;;;;;;;;;;;;32.97;7.17;96874.13;6367503;27;20013;-61
2022/03/26 07:25:01;;;;;;;;;;;;;;;30.59;8.04;96866.81;6373390;27;19919;-61
2022/03/26 07:28:04;;;;;;;;;;;;;;;29.17;8.61;96858.38;6373580;27;19919;-60
2022/03/26 07:31:06;;;;;;;;;;;;;;;28.44;8.26;96845.97;6373014;27;19923;-60
2022/03/26 07:34:07;;;;;;;;;;;;;;;29.59;8.70;96842.47;6376373;27;19958;-61
2022/03/26 07:37:08;;;;;;;;;;;;;;;31.55;8.10;96840.66;6371181;27;19926;-60
2022/03/26 07:40:10;;;;;;;;;;;;;;;32.29;7.25;96845.72;6373751;27;20585;-61
2022/03/26 07:43:14;;;;;;;;;;;;;;;33.97;6.70;96845.41;6377102;27;19919;-62
2022/03/26 07:46:18;;;;;;;;;;;;;;;34.56;6.67;96842.22;6365915;27;20029;-63
2022/03/26 07:49:22;;;;;;;;;;;;;;;35.52;6.23;96839.75;6370591;27;19919;-62
2022/03/26 07:52:25;;;;;;;;;;;;;;;35.91;5.71;96836.00;6357575;27;19919;-63
2022/03/26 07:55:27;;;;;;;;;;;;;;;36.03;6.32;96838.56;6369147;27;20423;-63
2022/03/26 07:58:30;;;;;;;;;;;;;;;36.73;6.19;96836.56;6365560;27;19920;-63
2022/03/26 08:01:34;;;;;;;;;;;;;;;36.82;5.95;96832.19;6350144;27;20327;-63
2022/03/26 08:04:41;;;;;;;;;;;;;;;36.47;5.61;96833.66;6368393;27;19919;-63
2022/03/26 08:07:44;;;;;;;;;;;;;;;35.80;5.48;96829.63;6369536;27;19926;-62
2022/03/26 08:10:48;;;;;;;;;;;;;;;34.68;5.13;96831.16;6365492;27;19919;-63
2022/03/26 08:13:51;;;;;;;;;;;;;;;32.45;6.48;96801.41;6359471;27;19929;-62
2022/03/26 08:16:55;;;;;;;;;;;;;;;33.36;6.37;96815.19;6368971;27;20017;-62
2022/03/26 08:19:56;;;;;;;;;;;;;;;33.85;6.06;96815.47;6370653;27;19942;-63
2022/03/26 08:23:00;;;;;;;;;;;;;;;29.87;7.12;96799.47;6371391;27;20096;-65
2022/03/26 08:26:26;;;;;;;;;;;;;;;26.47;9.05;96786.94;6347238;27;20294;-62
2022/03/26 08:29:28;;;;;;;;;;;;;;;25.92;9.28;96781.50;6350714;27;20405;-64
2022/03/26 08:32:29;;;;;;;;;;;;;;;25.06;9.72;96782.44;6370589;27;20252;-62
2022/03/26 08:35:34;;;;;;;;;;;;;;;25.35;9.45;96774.44;6375076;27;19919;-63
2022/03/26 08:38:37;;;;;;;;;;;;;;;28.02;8.39;96777.78;6373629;27;20272;-63
2022/03/26 08:41:38;;;;;;;;;;;;;;;28.33;8.06;96778.94;6372045;27;19966;-63
2022/03/26 08:44:42;;;;;;;;;;;;;;;26.18;8.93;96783.50;6354708;27;19923;-62
2022/03/26 08:47:46;;;;;;;;;;;;;;;26.70;8.61;96775.88;6372791;27;19942;-62
2022/03/26 08:50:50;;;;;;;;;;;;;;;28.30;7.56;96773.97;6371293;27;19992;-63
2022/03/26 08:53:51;;;;;;;;;;;;;;;29.50;7.24;96785.81;6368247;27;19915;-62
2022/03/26 08:56:52;;;;;;;;;;;;;;;30.14;7.47;96780.19;6359566;27;19919;-61
2022/03/26 08:59:58;;;;;;;;;;;;;;;31.45;6.70;96769.69;6351379;27;19919;-61
2022/03/26 09:02:59;;;;;;;;;;;;;;;31.54;7.06;96773.75;6369370;27;20345;-64
2022/03/26 09:06:03;;;;;;;;;;;;;;;31.97;6.46;96767.16;6377436;27;19919;-63
2022/03/26 09:09:06;;;;;;;;;;;;;;;30.53;6.60;96769.97;6371390;27;19918;-63
2022/03/26 09:12:10;;;;;;;;;;;;;;;29.54;7.44;96751.75;6376999;27;19923;-63
2022/03/26 09:15:13;;;;;;;;;;;;;;;27.42;8.09;96750.81;6380114;27;19933;-64
2022/03/26 09:18:14;;;;;;;;;;;;;;;27.08;8.87;96749.13;6375531;27;19933;-64
2022/03/26 09:21:21;;;;;;;;;;;;;;;27.88;8.27;96741.00;6377998;27;19919;-63
2022/03/26 09:24:24;;;;;;;;;;;;;;;27.85;8.14;96739.56;6374655;27;19920;-64
2022/03/26 09:27:25;;;;;;;;;;;;;;;26.67;8.54;96736.63;6378739;27;19926;-64
2022/03/26 09:30:31;;;;;;;;;;;;;;;26.25;8.74;96732.31;6377667;27;19919;-63
2022/03/26 09:33:35;;;;;;;;;;;;;;;25.13;9.38;96717.06;6357677;27;19957;-63
2022/03/26 09:36:41;;;;;;;;;;;;;;;25.00;9.79;96724.00;6375983;27;19926;-64
2022/03/26 09:39:42;;;;;;;;;;;;;;;27.23;8.46;96709.28;6375713;27;19919;-64
2022/03/26 09:42:43;;;;;;;;;;;;;;;28.28;8.14;96711.97;6376156;27;20005;-64
2022/03/26 09:45:46;;;;;;;;;;;;;;;28.72;8.05;96713.00;6376587;27;20013;-64
2022/03/26 09:48:52;;;;;;;;;;;;;;;29.28;7.72;96705.94;6361569;27;20407;-64
2022/03/26 09:51:56;;;;;;;;;;;;;;;28.93;7.77;96703.69;6377736;27;19929;-64
2022/03/26 09:54:57;;;;;;;;;;;;;;;28.48;7.61;96687.53;6378161;27;20423;-64
2022/03/26 09:58:00;;;;;;;;;;;;;;;27.09;8.09;96685.97;6373019;27;20406;-64
2022/03/26 10:01:02;;;;;;;;;;;;;;;25.58;8.92;96683.44;6377676;27;19946;-63
2022/03/26 10:04:13;;;;;;;;;;;;;;;24.73;9.40;96679.03;6378356;27;19919;-65
2022/03/26 10:07:16;;;;;;;;;;;;;;;23.76;9.42;96674.84;6379880;27;19968;-66
2022/03/26 10:10:22;;;;;;;;;;;;;;;22.14;10.58;96665.38;6378495;27;19923;-66
2022/03/26 10:13:42;;;;;;;;;;;;;;;21.61;10.55;96667.81;6373667;27;19925;-63
2022/03/26 10:16:50;;;;;;;;;;;;;;;21.31;11.08;96669.38;6368407;27;19934;-62
2022/03/26 10:19:57;;;;;;;;;;;;;;;20.33;11.52;96658.75;6372562;27;19923;-62
2022/03/26 10:23:00;;;;;;;;;;;;;;;19.63;11.93;96654.53;6338036;27;19927;-62
2022/03/26 10:26:12;;;;;;;;;;;;;;;19.02;12.58;96647.56;6322076;28;20013;-63
2022/03/26 10:29:15;;;;;;;;;;;;;;;17.87;13.00;96640.44;6317015;28;19920;-62
2022/03/26 10:32:39;;;;;;;;;;;;;;;17.97;13.22;96643.03;6323545;28;19926;-62
2022/03/26 10:35:51;;;;;;;;;;;;;;;17.92;13.33;96635.50;6320879;28;19930;-61
2022/03/26 10:38:52;;;;;;;;;;;;;;;19.27;12.57;96620.03;6319254;28;19969;-62
2022/03/26 10:41:58;;;;;;;;;;;;;;;20.42;11.66;96623.00;6320035;28;19955;-63
2022/03/26 10:45:01;;;;;;;;;;;;;;;20.88;11.36;96620.66;6321386;27;20010;-63
2022/03/26 10:48:08;;;;;;;;;;;;;;;20.73;11.65;96622.34;6326212;28;19924;-63
2022/03/26 10:51:15;;;;;;;;;;;;;;;20.10;12.19;96621.97;6326024;28;19927;-63
2022/03/26 10:54:17;;;;;;;;;;;;;;;19.49;12.56;96607.13;6323209;28;19924;-63
2022/03/26 10:57:21;;;;;;;;;;;;;;;18.73;13.16;96611.34;6323118;28;19926;-63
2022/03/26 11:00:25;;;;;;;;;;;;;;;18.25;13.63;96606.50;6323568;28;20382;-63
2022/03/26 11:03:29;;;;;;;;;;;;;;;18.02;13.45;96603.47;6325795;28;19919;-63
2022/03/26 11:06:38;;;;;;;;;;;;;;;18.60;13.42;96600.31;6328349;28;19920;-63
2022/03/26 11:09:40;;;;;;;;;;;;;;;19.44;12.52;96594.25;6324148;28;19919;-63
2022/03/26 11:12:43;;;;;;;;;;;;;;;20.14;12.12;96596.59;6325778;28;20456;-64
2022/03/26 11:15:49;;;;;;;;;;;;;;;20.66;12.20;96583.91;6322139;28;19927;-64
2022/03/26 11:18:50;;;;;;;;;;;;;;;19.52;12.91;96578.25;6317486;28;20010;-63
2022/03/26 11:22:06;;;;;;;;;;;;;;;17.19;14.32;96574.31;6318343;27;20372;-62
2022/03/26 11:25:26;;;;;;;;;;;;;;;14.79;16.02;96574.88;6355861;27;20057;-63
2022/03/26 11:28:36;;;;;;;;;;;;;;;12.88;17.54;96557.19;6371394;27;20300;-63
2022/03/26 11:31:50;;;;;;;;;;;;;;;11.57;18.74;96554.88;6374759;27;20427;-63
2022/03/26 11:35:02;;;;;;;;;;;;;;;10.55;19.26;96550.75;6376928;27;19923;-62
2022/03/26 11:38:04;;;;;;;;;;;;;;;9.93;19.98;96553.25;6379365;27;20396;-63
2022/03/26 11:41:08;;;;;;;;;;;;;;;9.42;20.73;96549.56;6374740;27;19967;-63
2022/03/26 11:44:12;;;;;;;;;;;;;;;8.64;21.96;96551.94;6374512;27;19922;-63
2022/03/26 11:50:41;;;;;;;;;;;;;;;8.51;21.79;96541.38;6353821;27;19954;-62
2022/03/26 11:53:44;;;;;;;;;;;;;;;8.72;21.64;96538.38;6337591;27;20493;-63
2022/03/26 11:57:06;;;;;;;;;;;;;;;8.69;21.78;96533.28;6376043;27;19927;-63
2022/03/26 12:00:20;;;;;;;;;;;;;;;8.67;22.17;96524.69;6375417;27;19919;-62
2022/03/26 12:03:25;;;;;;;;;;;;;;;8.28;22.66;96523.56;6376154;27;19930;-63
2022/03/26 12:06:40;;;;;;;;;;;;;;;8.03;23.04;96525.03;6375841;27;19923;-63
2022/03/26 12:09:44;;;;;;;;;;;;;;;8.72;22.72;96520.00;6377361;27;20330;-62
2022/03/26 12:13:08;;;;;;;;;;;;;;;10.59;21.18;96520.69;6376453;27;20383;-62
2022/03/26 12:16:12;;;;;;;;;;;;;;;10.99;20.50;96508.13;6375369;27;19919;-62
2022/03/26 12:19:33;;;;;;;;;;;;;;;10.96;20.86;96512.78;6376064;27;20310;-62
2022/03/26 12:22:33;;;;;;;;;;;;;;;11.21;20.89;96496.88;6375234;27;19926;-63
2022/03/26 12:25:47;;;;;;;;;;;;;;;11.45;20.39;96496.84;6375037;27;19923;-62
2022/03/26 12:28:49;;;;;;;;;;;;;;;11.60;20.31;96492.22;6375141;27;19914;-63
2022/03/26 12:31:52;;;;;;;;;;;;;;;11.34;20.67;96495.97;6378327;27;20067;-62
2022/03/26 12:34:56;;;;;;;;;;;;;;;10.87;21.23;96492.38;6372626;27;19919;-63
2022/03/26 12:38:01;;;;;;;;;;;;;;;10.44;21.63;96480.47;6377059;27;20400;-63
2022/03/26 12:41:05;;;;;;;;;;;;;;;10.17;21.88;96485.88;6370422;27;20011;-64
2022/03/26 12:44:15;;;;;;;;;;;;;;;9.52;22.55;96476.28;6373376;27;19923;-62
2022/03/26 12:47:16;;;;;;;;;;;;;;;8.95;23.40;96477.38;6376780;27;19976;-63
2022/03/26 12:50:21;;;;;;;;;;;;;;;8.73;23.15;96471.84;6360658;27;19923;-63
2022/03/26 12:53:24;;;;;;;;;;;;;;;8.63;23.42;96462.84;6379031;27;19923;-62
2022/03/26 12:56:30;;;;;;;;;;;;;;;8.60;23.37;96465.69;6376077;27;19919;-63
2022/03/26 12:59:34;;;;;;;;;;;;;;;8.52;23.26;96459.16;6377775;27;20474;-62
2022/03/26 13:02:39;;;;;;;;;;;;;;;8.35;23.67;96461.09;6380026;27;19914;-62
2022/03/26 13:05:43;;;;;;;;;;;;;;;8.04;24.39;96463.03;6380016;27;20372;-62
2022/03/26 13:08:51;;;;;;;;;;;;;;;7.82;24.63;96463.47;6379135;27;19915;-63
2022/03/26 13:11:56;;;;;;;;;;;;;;;7.31;25.52;96456.00;6378522;27;19919;-62
2022/03/26 13:14:57;;;;;;;;;;;;;;;6.60;26.31;96472.25;6375094;27;19954;-62
2022/03/26 13:18:04;;;;;;;;;;;;;;;6.25;26.67;96464.56;6358299;27;20348;-63
2022/03/26 13:21:05;;;;;;;;;;;;;;;6.01;26.98;96463.28;6377747;27;20312;-63
2022/03/26 13:24:07;;;;;;;;;;;;;;;5.73;27.03;96459.47;6376838;27;19919;-63
2022/03/26 13:27:16;;;;;;;;;;;;;;;5.48;27.26;96456.44;6376822;27;20553;-63
2022/03/26 13:30:23;;;;;;;;;;;;;;;5.27;27.24;96461.84;6383137;27;20378;-62
2022/03/26 13:33:30;;;;;;;;;;;;;;;5.02;28.01;96457.00;6380619;27;19930;-63
2022/03/26 13:36:33;;;;;;;;;;;;;;;4.57;28.86;96450.50;6377567;27;19919;-62
2022/03/26 13:39:38;;;;;;;;;;;;;;;3.97;29.40;96445.47;6379973;27;19923;-61
2022/03/26 13:42:40;;;;;;;;;;;;;;;3.35;29.97;96447.34;6381054;27;20334;-63
2022/03/26 13:45:43;;;;;;;;;;;;;;;2.73;30.65;96460.34;6375945;27;19923;-61
2022/03/26 13:48:47;;;;;;;;;;;;;;;2.20;31.33;96451.16;6377493;27;19919;-62
2022/03/26 13:51:50;;;;;;;;;;;;;;;1.66;32.18;96467.88;6377488;27;19919;-61
2022/03/26 13:54:54;;;;;;;;;;;;;;;1.26;32.63;96459.78;6377624;27;20364;-62
2022/03/26 13:57:56;;;;;;;;;;;;;;;0.82;33.50;96458.66;6373070;27;19926;-62
2022/03/26 14:00:57;;;;;;;;;;;;;;;0.56;33.49;96456.94;6375599;27;19946;-63
2022/03/26 14:03:58;;;;;;;;;;;;;;;0.26;34.22;96458.75;6375785;27;19923;-62
2022/03/26 14:07:00;;;;;;;;;;;;;;;0.05;35.39;96460.25;6375491;27;19929;-62
2022/03/26 14:10:03;;;;;;;;;;;;;;;-0.12;37.48;96453.81;6357055;27;20315;-63
2022/03/26 14:13:07;;;;;;;;;;;;;;;-0.39;38.42;96459.81;6375569;27;19946;-62
2022/03/26 14:16:09;;;;;;;;;;;;;;;-0.70;38.67;96455.47;6375529;27;19923;-63
2022/03/26 14:19:12;;;;;;;;;;;;;;;-1.00;39.07;96457.97;6379173;27;20372;-62
2022/03/26 14:22:14;;;;;;;;;;;;;;;-1.17;39.74;96462.72;6374460;27;20392;-63
2022/03/26 14:25:15;;;;;;;;;;;;;;;-1.34;40.44;96454.56;6379823;27;19923;-62
2022/03/26 14:28:17;;;;;;;;;;;;;;;-1.59;40.70;96460.31;6372996;27;19923;-62
2022/03/26 14:31:21;;;;;;;;;;;;;;;-1.77;41.43;96458.16;6377315;27;19925;-64
2022/03/26 14:34:24;;;;;;;;;;;;;;;-1.96;42.02;96453.41;6377542;27;19927;-62
2022/03/26 14:37:25;;;;;;;;;;;;;;;-2.20;41.09;96459.13;6385968;27;20085;-61
2022/03/26 14:40:32;;;;;;;;;;;;;;;-2.36;41.79;96454.25;6374464;27;19923;-63
2022/03/26 14:43:36;;;;;;;;;;;;;;;-2.49;41.80;96453.69;6378486;27;19919;-64
2022/03/26 14:46:41;;;;;;;;;;;;;;;-2.48;42.28;96457.09;6374477;27;19984;-63
2022/03/26 14:49:43;;;;;;;;;;;;;;;-2.55;42.21;96452.94;6373784;27;19926;-61
2022/03/26 14:52:44;;;;;;;;;;;;;;;-2.71;42.03;96460.13;6372077;27;20339;-62
2022/03/26 14:55:45;;;;;;;;;;;;;;;-2.58;44.41;96464.16;6374406;27;19996;-62
2022/03/26 14:58:49;;;;;;;;;;;;;;;-2.79;43.54;96460.28;6368905;27;20387;-63
2022/03/26 15:01:54;;;;;;;;;;;;;;;-2.90;44.06;96454.47;6363164;27;19919;-66
2022/03/26 15:04:59;;;;;;;;;;;;;;;-3.02;44.43;96462.44;6367744;27;19919;-63
2022/03/26 15:08:00;;;;;;;;;;;;;;;-3.09;44.86;96456.53;6368633;27;19923;-63
2022/03/26 15:11:03;;;;;;;;;;;;;;;-3.30;44.85;96455.19;6372168;27;20013;-64
2022/03/26 15:14:05;;;;;;;;;;;;;;;-3.37;45.51;96445.88;6379380;27;19919;-64
2022/03/26 15:17:08;;;;;;;;;;;;;;;-3.45;45.58;96452.91;6376938;27;19927;-64
2022/03/26 15:20:10;;;;;;;;;;;;;;;-3.60;45.87;96448.81;6374811;27;19923;-64
2022/03/26 15:23:14;;;;;;;;;;;;;;;-3.70;45.66;96453.28;6378055;27;19918;-64
2022/03/26 15:26:17;;;;;;;;;;;;;;;-3.73;46.54;96453.31;6374856;27;20340;-63
2022/03/26 15:29:20;;;;;;;;;;;;;;;-3.77;46.68;96449.09;6375940;27;19919;-64
2022/03/26 15:32:21;;;;;;;;;;;;;;;-3.89;46.07;96441.56;6372769;27;19925;-65
2022/03/26 15:35:22;;;;;;;;;;;;;;;-4.02;45.93;96445.19;6373350;27;19926;-64
2022/03/26 15:38:26;;;;;;;;;;;;;;;-4.09;46.70;96440.13;6374488;27;19923;-64
2022/03/26 15:41:29;;;;;;;;;;;;;;;-4.15;47.15;96440.22;6360783;27;20063;-63
2022/03/26 15:44:32;;;;;;;;;;;;;;;-4.27;47.06;96430.13;6374472;27;20386;-65
2022/03/26 15:47:38;;;;;;;;;;;;;;;-4.30;47.12;96435.31;6381028;27;19919;-64
2022/03/26 15:50:39;;;;;;;;;;;;;;;-4.36;48.12;96435.38;6369352;27;20799;-62
2022/03/26 15:53:45;;;;;;;;;;;;;;;-4.45;48.39;96438.06;6372542;27;20699;-64
2022/03/26 15:56:49;;;;;;;;;;;;;;;-4.43;48.53;96428.63;6369116;27;19919;-63
2022/03/26 15:59:52;;;;;;;;;;;;;;;-4.65;48.45;96423.78;6372349;27;19942;-64
2022/03/26 16:02:59;;;;;;;;;;;;;;;-4.79;48.99;96430.78;6373444;27;19923;-64